sensor_id;sensor_type;location;lat;lon;timestamp;P1;durP1;ratioP1;P2;durP2;ratioP2
52786;SDS011;38661;53.152;5.846;2022-11-22T00:02:14;55.88;;;26.88;;
52786;SDS011;38661;53.152;5.846;2022-11-22T00:04:40;48.17;;;25.42;;
52786;SDS011;38661;53.152;5.846;2022-11-22T00:07:06;53.75;;;26.08;;
52786;SDS011;38661;53.152;5.846;2022-11-22T00:09:32;40.38;;;22.25;;
52786;SDS011;38661;53.152;5.846;2022-11-22T00:11:58;40.95;;;21.60;;
52786;SDS011;38661;53.152;5.846;2022-11-22T00:14:24;44.50;;;22.40;;
52786;SDS011;38661;53.152;5.846;2022-11-22T00:16:50;38.40;;;21.77;;
52786;SDS011;38661;53.152;5.846;2022-11-22T00:19:16;40.50;;;21.75;;
52786;SDS011;38661;53.152;5.846;2022-11-22T00:21:42;40.75;;;20.30;;
52786;SDS011;38661;53.152;5.846;2022-11-22T00:24:10;39.80;;;19.85;;
52786;SDS011;38661;53.152;5.846;2022-11-22T00:26:37;38.70;;;20.05;;
52786;SDS011;38661;53.152;5.846;2022-11-22T00:29:02;36.42;;;21.17;;
52786;SDS011;38661;53.152;5.846;2022-11-22T00:31:29;36.95;;;19.38;;
52786;SDS011;38661;53.152;5.846;2022-11-22T00:33:54;43.20;;;21.13;;
52786;SDS011;38661;53.152;5.846;2022-11-22T00:36:21;33.45;;;18.80;;
52786;SDS011;38661;53.152;5.846;2022-11-22T00:38:47;36.75;;;18.33;;
52786;SDS011;38661;53.152;5.846;2022-11-22T00:41:13;40.28;;;19.35;;
52786;SDS011;38661;53.152;5.846;2022-11-22T00:43:39;29.23;;;18.00;;
52786;SDS011;38661;53.152;5.846;2022-11-22T00:46:05;32.67;;;18.13;;
52786;SDS011;38661;53.152;5.846;2022-11-22T00:48:31;32.50;;;17.52;;
52786;SDS011;38661;53.152;5.846;2022-11-22T00:50:57;31.65;;;17.88;;
52786;SDS011;38661;53.152;5.846;2022-11-22T00:53:23;30.38;;;17.00;;
52786;SDS011;38661;53.152;5.846;2022-11-22T00:55:48;32.00;;;18.48;;
52786;SDS011;38661;53.152;5.846;2022-11-22T00:58:14;36.53;;;18.20;;
52786;SDS011;38661;53.152;5.846;2022-11-22T01:00:40;35.13;;;19.17;;
52786;SDS011;38661;53.152;5.846;2022-11-22T01:03:09;35.38;;;18.25;;
52786;SDS011;38661;53.152;5.846;2022-11-22T01:05:36;30.98;;;16.25;;
52786;SDS011;38661;53.152;5.846;2022-11-22T01:08:02;33.05;;;17.95;;
52786;SDS011;38661;53.152;5.846;2022-11-22T01:10:28;35.28;;;18.77;;
52786;SDS011;38661;53.152;5.846;2022-11-22T01:12:55;36.05;;;19.30;;
52786;SDS011;38661;53.152;5.846;2022-11-22T01:15:22;31.48;;;18.58;;
52786;SDS011;38661;53.152;5.846;2022-11-22T01:17:48;27.85;;;16.40;;
52786;SDS011;38661;53.152;5.846;2022-11-22T01:20:13;33.65;;;17.80;;
52786;SDS011;38661;53.152;5.846;2022-11-22T01:22:39;34.03;;;17.88;;
52786;SDS011;38661;53.152;5.846;2022-11-22T01:25:05;28.85;;;17.52;;
52786;SDS011;38661;53.152;5.846;2022-11-22T01:27:32;30.52;;;16.95;;
52786;SDS011;38661;53.152;5.846;2022-11-22T01:29:58;28.67;;;16.48;;
52786;SDS011;38661;53.152;5.846;2022-11-22T01:32:24;30.50;;;16.70;;
52786;SDS011;38661;53.152;5.846;2022-11-22T01:34:50;33.05;;;16.60;;
52786;SDS011;38661;53.152;5.846;2022-11-22T01:37:16;28.55;;;16.67;;
52786;SDS011;38661;53.152;5.846;2022-11-22T01:39:42;30.77;;;16.98;;
52786;SDS011;38661;53.152;5.846;2022-11-22T01:42:09;33.63;;;19.88;;
52786;SDS011;38661;53.152;5.846;2022-11-22T01:44:38;35.92;;;18.75;;
52786;SDS011;38661;53.152;5.846;2022-11-22T01:52:18;88.60;;;42.28;;
52786;SDS011;38661;53.152;5.846;2022-11-22T01:54:47;32.13;;;17.98;;
52786;SDS011;38661;53.152;5.846;2022-11-22T01:57:20;26.97;;;15.70;;
52786;SDS011;38661;53.152;5.846;2022-11-22T01:59:51;26.25;;;16.23;;
52786;SDS011;38661;53.152;5.846;2022-11-22T02:02:22;28.13;;;17.27;;
52786;SDS011;38661;53.152;5.846;2022-11-22T02:04:49;26.25;;;14.93;;
52786;SDS011;38661;53.152;5.846;2022-11-22T02:07:34;25.95;;;15.50;;
52786;SDS011;38661;53.152;5.846;2022-11-22T02:10:10;29.05;;;16.25;;
52786;SDS011;38661;53.152;5.846;2022-11-22T02:12:36;30.95;;;16.50;;
52786;SDS011;38661;53.152;5.846;2022-11-22T02:15:03;26.13;;;16.40;;
52786;SDS011;38661;53.152;5.846;2022-11-22T02:17:29;33.47;;;16.80;;
52786;SDS011;38661;53.152;5.846;2022-11-22T02:19:55;29.90;;;17.40;;
52786;SDS011;38661;53.152;5.846;2022-11-22T02:22:30;28.98;;;16.58;;
52786;SDS011;38661;53.152;5.846;2022-11-22T02:28:02;30.02;;;18.50;;
52786;SDS011;38661;53.152;5.846;2022-11-22T02:30:29;26.98;;;16.73;;
52786;SDS011;38661;53.152;5.846;2022-11-22T02:32:54;27.25;;;16.42;;
52786;SDS011;38661;53.152;5.846;2022-11-22T02:37:48;25.77;;;16.30;;
52786;SDS011;38661;53.152;5.846;2022-11-22T02:40:16;29.10;;;17.33;;
52786;SDS011;38661;53.152;5.846;2022-11-22T02:42:46;26.42;;;16.33;;
52786;SDS011;38661;53.152;5.846;2022-11-22T02:45:14;28.90;;;17.42;;
52786;SDS011;38661;53.152;5.846;2022-11-22T02:47:40;27.70;;;16.40;;
52786;SDS011;38661;53.152;5.846;2022-11-22T02:50:06;31.17;;;16.52;;
52786;SDS011;38661;53.152;5.846;2022-11-22T02:52:32;26.60;;;16.98;;
52786;SDS011;38661;53.152;5.846;2022-11-22T02:54:58;27.65;;;17.05;;
52786;SDS011;38661;53.152;5.846;2022-11-22T02:57:24;27.65;;;17.38;;
52786;SDS011;38661;53.152;5.846;2022-11-22T02:59:50;28.02;;;16.92;;
52786;SDS011;38661;53.152;5.846;2022-11-22T03:02:15;31.27;;;17.85;;
52786;SDS011;38661;53.152;5.846;2022-11-22T03:04:41;27.90;;;18.35;;
52786;SDS011;38661;53.152;5.846;2022-11-22T03:07:07;29.13;;;17.95;;
52786;SDS011;38661;53.152;5.846;2022-11-22T03:09:33;28.83;;;17.27;;
52786;SDS011;38661;53.152;5.846;2022-11-22T03:11:59;27.02;;;18.58;;
52786;SDS011;38661;53.152;5.846;2022-11-22T03:14:25;26.55;;;17.60;;
52786;SDS011;38661;53.152;5.846;2022-11-22T03:16:51;28.27;;;17.67;;
52786;SDS011;38661;53.152;5.846;2022-11-22T03:19:17;31.50;;;19.27;;
52786;SDS011;38661;53.152;5.846;2022-11-22T03:21:43;32.35;;;20.15;;
52786;SDS011;38661;53.152;5.846;2022-11-22T03:24:09;29.05;;;18.02;;
52786;SDS011;38661;53.152;5.846;2022-11-22T03:26:35;31.48;;;18.27;;
52786;SDS011;38661;53.152;5.846;2022-11-22T03:29:01;31.88;;;19.38;;
52786;SDS011;38661;53.152;5.846;2022-11-22T03:31:28;30.00;;;18.92;;
52786;SDS011;38661;53.152;5.846;2022-11-22T03:33:53;30.63;;;18.48;;
52786;SDS011;38661;53.152;5.846;2022-11-22T03:36:20;30.08;;;18.88;;
52786;SDS011;38661;53.152;5.846;2022-11-22T03:38:46;30.25;;;18.98;;
52786;SDS011;38661;53.152;5.846;2022-11-22T03:41:12;28.27;;;18.67;;
52786;SDS011;38661;53.152;5.846;2022-11-22T03:43:38;33.67;;;20.98;;
52786;SDS011;38661;53.152;5.846;2022-11-22T03:46:04;27.23;;;18.15;;
52786;SDS011;38661;53.152;5.846;2022-11-22T03:48:30;33.80;;;19.05;;
52786;SDS011;38661;53.152;5.846;2022-11-22T03:51:03;36.80;;;19.88;;
52786;SDS011;38661;53.152;5.846;2022-11-22T03:53:30;29.98;;;18.98;;
52786;SDS011;38661;53.152;5.846;2022-11-22T03:55:56;31.00;;;18.92;;
52786;SDS011;38661;53.152;5.846;2022-11-22T03:58:23;32.25;;;19.05;;
52786;SDS011;38661;53.152;5.846;2022-11-22T04:00:49;29.05;;;19.30;;
52786;SDS011;38661;53.152;5.846;2022-11-22T04:03:15;32.55;;;19.50;;
52786;SDS011;38661;53.152;5.846;2022-11-22T04:05:43;32.28;;;19.40;;
52786;SDS011;38661;53.152;5.846;2022-11-22T04:08:09;32.47;;;19.00;;
52786;SDS011;38661;53.152;5.846;2022-11-22T04:10:35;34.75;;;20.40;;
52786;SDS011;38661;53.152;5.846;2022-11-22T04:13:01;36.00;;;20.27;;
52786;SDS011;38661;53.152;5.846;2022-11-22T04:15:27;30.88;;;19.95;;
52786;SDS011;38661;53.152;5.846;2022-11-22T04:17:53;32.05;;;19.23;;
52786;SDS011;38661;53.152;5.846;2022-11-22T04:20:26;34.72;;;20.70;;
52786;SDS011;38661;53.152;5.846;2022-11-22T04:25:40;32.80;;;19.67;;
52786;SDS011;38661;53.152;5.846;2022-11-22T04:28:08;32.00;;;19.55;;
52786;SDS011;38661;53.152;5.846;2022-11-22T04:30:35;32.40;;;21.00;;
52786;SDS011;38661;53.152;5.846;2022-11-22T04:33:30;32.97;;;19.40;;
52786;SDS011;38661;53.152;5.846;2022-11-22T04:35:56;33.78;;;20.55;;
52786;SDS011;38661;53.152;5.846;2022-11-22T04:38:22;29.45;;;19.63;;
52786;SDS011;38661;53.152;5.846;2022-11-22T04:40:48;36.90;;;20.27;;
52786;SDS011;38661;53.152;5.846;2022-11-22T04:46:03;33.80;;;20.92;;
52786;SDS011;38661;53.152;5.846;2022-11-22T04:48:29;30.13;;;19.63;;
52786;SDS011;38661;53.152;5.846;2022-11-22T04:50:55;35.95;;;21.92;;
52786;SDS011;38661;53.152;5.846;2022-11-22T04:53:39;33.10;;;21.08;;
52786;SDS011;38661;53.152;5.846;2022-11-22T04:56:05;31.17;;;19.30;;
52786;SDS011;38661;53.152;5.846;2022-11-22T04:58:32;35.55;;;22.40;;
52786;SDS011;38661;53.152;5.846;2022-11-22T05:00:57;34.60;;;22.20;;
52786;SDS011;38661;53.152;5.846;2022-11-22T05:03:23;32.22;;;19.60;;
52786;SDS011;38661;53.152;5.846;2022-11-22T05:05:49;32.72;;;21.30;;
52786;SDS011;38661;53.152;5.846;2022-11-22T05:08:15;39.67;;;20.80;;
52786;SDS011;38661;53.152;5.846;2022-11-22T05:10:41;33.50;;;20.90;;
52786;SDS011;38661;53.152;5.846;2022-11-22T05:13:33;33.58;;;21.17;;
52786;SDS011;38661;53.152;5.846;2022-11-22T05:16:04;31.55;;;19.73;;
52786;SDS011;38661;53.152;5.846;2022-11-22T05:18:31;33.28;;;21.65;;
52786;SDS011;38661;53.152;5.846;2022-11-22T05:20:57;32.13;;;21.75;;
52786;SDS011;38661;53.152;5.846;2022-11-22T05:23:28;32.47;;;21.85;;
52786;SDS011;38661;53.152;5.846;2022-11-22T05:26:12;34.03;;;21.50;;
52786;SDS011;38661;53.152;5.846;2022-11-22T05:28:38;34.42;;;21.10;;
52786;SDS011;38661;53.152;5.846;2022-11-22T05:31:05;32.78;;;20.15;;
52786;SDS011;38661;53.152;5.846;2022-11-22T05:33:37;33.47;;;21.00;;
52786;SDS011;38661;53.152;5.846;2022-11-22T05:36:05;30.98;;;21.02;;
52786;SDS011;38661;53.152;5.846;2022-11-22T05:38:32;33.78;;;20.45;;
52786;SDS011;38661;53.152;5.846;2022-11-22T05:41:00;38.13;;;22.23;;
52786;SDS011;38661;53.152;5.846;2022-11-22T05:43:27;33.88;;;21.67;;
52786;SDS011;38661;53.152;5.846;2022-11-22T05:45:53;36.10;;;21.48;;
52786;SDS011;38661;53.152;5.846;2022-11-22T05:48:19;41.92;;;21.38;;
52786;SDS011;38661;53.152;5.846;2022-11-22T05:50:45;34.63;;;20.95;;
52786;SDS011;38661;53.152;5.846;2022-11-22T05:53:11;39.22;;;20.40;;
52786;SDS011;38661;53.152;5.846;2022-11-22T05:55:37;33.35;;;20.38;;
52786;SDS011;38661;53.152;5.846;2022-11-22T05:58:02;31.40;;;19.45;;
52786;SDS011;38661;53.152;5.846;2022-11-22T06:00:28;34.33;;;19.85;;
52786;SDS011;38661;53.152;5.846;2022-11-22T06:03:02;35.40;;;20.58;;
52786;SDS011;38661;53.152;5.846;2022-11-22T06:05:28;34.78;;;19.83;;
52786;SDS011;38661;53.152;5.846;2022-11-22T06:07:58;31.83;;;19.58;;
52786;SDS011;38661;53.152;5.846;2022-11-22T06:10:25;29.60;;;18.40;;
52786;SDS011;38661;53.152;5.846;2022-11-22T06:12:51;33.88;;;19.02;;
52786;SDS011;38661;53.152;5.846;2022-11-22T06:15:17;33.45;;;18.50;;
52786;SDS011;38661;53.152;5.846;2022-11-22T06:17:43;33.70;;;18.67;;
52786;SDS011;38661;53.152;5.846;2022-11-22T06:20:09;28.35;;;17.23;;
52786;SDS011;38661;53.152;5.846;2022-11-22T06:22:35;29.00;;;19.48;;
52786;SDS011;38661;53.152;5.846;2022-11-22T06:25:01;28.85;;;15.88;;
52786;SDS011;38661;53.152;5.846;2022-11-22T06:27:27;28.23;;;16.55;;
52786;SDS011;38661;53.152;5.846;2022-11-22T06:29:52;33.28;;;18.10;;
52786;SDS011;38661;53.152;5.846;2022-11-22T06:32:18;35.45;;;17.75;;
52786;SDS011;38661;53.152;5.846;2022-11-22T06:34:44;29.23;;;18.42;;
52786;SDS011;38661;53.152;5.846;2022-11-22T06:37:09;28.95;;;17.58;;
52786;SDS011;38661;53.152;5.846;2022-11-22T06:39:38;31.00;;;16.85;;
52786;SDS011;38661;53.152;5.846;2022-11-22T06:42:17;31.38;;;17.63;;
52786;SDS011;38661;53.152;5.846;2022-11-22T06:44:43;29.00;;;16.27;;
52786;SDS011;38661;53.152;5.846;2022-11-22T06:47:09;34.20;;;17.48;;
52786;SDS011;38661;53.152;5.846;2022-11-22T06:49:35;34.03;;;17.63;;
52786;SDS011;38661;53.152;5.846;2022-11-22T06:52:01;28.35;;;15.70;;
52786;SDS011;38661;53.152;5.846;2022-11-22T06:54:27;29.15;;;18.95;;
52786;SDS011;38661;53.152;5.846;2022-11-22T06:56:52;31.75;;;15.77;;
52786;SDS011;38661;53.152;5.846;2022-11-22T06:59:18;31.48;;;16.88;;
52786;SDS011;38661;53.152;5.846;2022-11-22T07:01:44;28.98;;;15.52;;
52786;SDS011;38661;53.152;5.846;2022-11-22T07:04:10;29.70;;;14.75;;
52786;SDS011;38661;53.152;5.846;2022-11-22T07:06:36;32.70;;;17.05;;
52786;SDS011;38661;53.152;5.846;2022-11-22T07:09:07;38.40;;;17.13;;
52786;SDS011;38661;53.152;5.846;2022-11-22T07:11:34;31.05;;;16.13;;
52786;SDS011;38661;53.152;5.846;2022-11-22T07:14:01;39.13;;;18.13;;
52786;SDS011;38661;53.152;5.846;2022-11-22T07:16:27;36.03;;;16.67;;
52786;SDS011;38661;53.152;5.846;2022-11-22T07:18:53;34.25;;;15.65;;
52786;SDS011;38661;53.152;5.846;2022-11-22T07:21:20;32.42;;;16.52;;
52786;SDS011;38661;53.152;5.846;2022-11-22T07:23:47;28.15;;;14.77;;
52786;SDS011;38661;53.152;5.846;2022-11-22T07:26:17;37.22;;;20.65;;
52786;SDS011;38661;53.152;5.846;2022-11-22T07:28:44;34.47;;;16.73;;
52786;SDS011;38661;53.152;5.846;2022-11-22T07:31:11;26.63;;;14.15;;
52786;SDS011;38661;53.152;5.846;2022-11-22T07:33:38;25.67;;;13.70;;
52786;SDS011;38661;53.152;5.846;2022-11-22T07:36:06;32.30;;;14.27;;
52786;SDS011;38661;53.152;5.846;2022-11-22T07:38:33;25.58;;;12.57;;
52786;SDS011;38661;53.152;5.846;2022-11-22T07:40:59;32.20;;;14.35;;
52786;SDS011;38661;53.152;5.846;2022-11-22T07:43:26;28.17;;;13.07;;
52786;SDS011;38661;53.152;5.846;2022-11-22T07:45:52;21.50;;;10.95;;
52786;SDS011;38661;53.152;5.846;2022-11-22T07:48:21;27.20;;;10.95;;
52786;SDS011;38661;53.152;5.846;2022-11-22T07:50:48;21.73;;;11.90;;
52786;SDS011;38661;53.152;5.846;2022-11-22T07:53:13;23.50;;;10.57;;
52786;SDS011;38661;53.152;5.846;2022-11-22T07:55:39;24.02;;;9.73;;
52786;SDS011;38661;53.152;5.846;2022-11-22T07:58:05;24.20;;;10.25;;
52786;SDS011;38661;53.152;5.846;2022-11-22T08:00:31;18.20;;;8.15;;
52786;SDS011;38661;53.152;5.846;2022-11-22T08:02:57;22.75;;;8.30;;
52786;SDS011;38661;53.152;5.846;2022-11-22T08:05:23;20.25;;;7.80;;
52786;SDS011;38661;53.152;5.846;2022-11-22T08:07:49;24.30;;;7.78;;
52786;SDS011;38661;53.152;5.846;2022-11-22T08:10:16;16.05;;;8.30;;
52786;SDS011;38661;53.152;5.846;2022-11-22T08:12:42;18.00;;;7.22;;
52786;SDS011;38661;53.152;5.846;2022-11-22T08:15:09;17.90;;;7.18;;
52786;SDS011;38661;53.152;5.846;2022-11-22T08:17:37;22.45;;;9.93;;
52786;SDS011;38661;53.152;5.846;2022-11-22T08:20:03;19.80;;;7.72;;
52786;SDS011;38661;53.152;5.846;2022-11-22T08:22:30;19.70;;;7.25;;
52786;SDS011;38661;53.152;5.846;2022-11-22T08:24:55;14.35;;;7.63;;
52786;SDS011;38661;53.152;5.846;2022-11-22T08:27:22;18.38;;;7.10;;
52786;SDS011;38661;53.152;5.846;2022-11-22T08:29:48;18.75;;;6.50;;
52786;SDS011;38661;53.152;5.846;2022-11-22T08:32:13;15.88;;;6.28;;
52786;SDS011;38661;53.152;5.846;2022-11-22T08:34:39;18.20;;;6.75;;
52786;SDS011;38661;53.152;5.846;2022-11-22T08:37:05;18.25;;;5.95;;
52786;SDS011;38661;53.152;5.846;2022-11-22T08:39:31;21.60;;;6.70;;
52786;SDS011;38661;53.152;5.846;2022-11-22T08:41:57;15.52;;;6.60;;
52786;SDS011;38661;53.152;5.846;2022-11-22T08:44:22;21.85;;;6.93;;
52786;SDS011;38661;53.152;5.846;2022-11-22T08:46:48;18.13;;;5.90;;
52786;SDS011;38661;53.152;5.846;2022-11-22T08:49:14;12.52;;;5.97;;
52786;SDS011;38661;53.152;5.846;2022-11-22T08:51:39;10.18;;;5.65;;
52786;SDS011;38661;53.152;5.846;2022-11-22T08:54:12;17.08;;;6.18;;
52786;SDS011;38661;53.152;5.846;2022-11-22T08:56:39;12.80;;;5.40;;
52786;SDS011;38661;53.152;5.846;2022-11-22T08:59:05;15.35;;;5.78;;
52786;SDS011;38661;53.152;5.846;2022-11-22T09:01:31;13.45;;;6.32;;
52786;SDS011;38661;53.152;5.846;2022-11-22T09:03:57;13.23;;;5.45;;
52786;SDS011;38661;53.152;5.846;2022-11-22T09:06:23;11.13;;;5.47;;
52786;SDS011;38661;53.152;5.846;2022-11-22T09:08:49;14.82;;;5.70;;
52786;SDS011;38661;53.152;5.846;2022-11-22T09:11:16;9.57;;;5.07;;
52786;SDS011;38661;53.152;5.846;2022-11-22T09:13:43;12.77;;;5.35;;
52786;SDS011;38661;53.152;5.846;2022-11-22T09:16:11;12.48;;;4.82;;
52786;SDS011;38661;53.152;5.846;2022-11-22T09:18:39;11.63;;;5.60;;
52786;SDS011;38661;53.152;5.846;2022-11-22T09:21:06;11.18;;;4.35;;
52786;SDS011;38661;53.152;5.846;2022-11-22T09:23:35;12.30;;;5.30;;
52786;SDS011;38661;53.152;5.846;2022-11-22T09:26:05;10.05;;;5.57;;
52786;SDS011;38661;53.152;5.846;2022-11-22T09:28:33;14.55;;;5.25;;
52786;SDS011;38661;53.152;5.846;2022-11-22T09:33:25;11.77;;;4.88;;
52786;SDS011;38661;53.152;5.846;2022-11-22T09:35:57;17.92;;;4.68;;
52786;SDS011;38661;53.152;5.846;2022-11-22T09:38:28;11.15;;;4.53;;
52786;SDS011;38661;53.152;5.846;2022-11-22T09:40:54;10.32;;;4.47;;
52786;SDS011;38661;53.152;5.846;2022-11-22T09:43:23;8.15;;;4.70;;
52786;SDS011;38661;53.152;5.846;2022-11-22T09:46:02;10.50;;;4.90;;
52786;SDS011;38661;53.152;5.846;2022-11-22T09:51:40;9.93;;;4.38;;
52786;SDS011;38661;53.152;5.846;2022-11-22T09:54:22;8.65;;;4.70;;
52786;SDS011;38661;53.152;5.846;2022-11-22T09:56:51;14.13;;;5.07;;
52786;SDS011;38661;53.152;5.846;2022-11-22T09:59:27;11.45;;;4.82;;
52786;SDS011;38661;53.152;5.846;2022-11-22T10:02:01;11.00;;;5.40;;
52786;SDS011;38661;53.152;5.846;2022-11-22T10:04:41;11.77;;;4.78;;
52786;SDS011;38661;53.152;5.846;2022-11-22T10:07:19;10.45;;;4.30;;
52786;SDS011;38661;53.152;5.846;2022-11-22T10:09:52;10.82;;;5.05;;
52786;SDS011;38661;53.152;5.846;2022-11-22T10:15:31;10.35;;;4.60;;
52786;SDS011;38661;53.152;5.846;2022-11-22T10:18:09;11.20;;;5.20;;
52786;SDS011;38661;53.152;5.846;2022-11-22T10:20:56;8.13;;;4.10;;
52786;SDS011;38661;53.152;5.846;2022-11-22T10:23:22;8.82;;;3.90;;
52786;SDS011;38661;53.152;5.846;2022-11-22T10:25:56;10.02;;;5.10;;
52786;SDS011;38661;53.152;5.846;2022-11-22T10:28:35;12.60;;;5.18;;
52786;SDS011;38661;53.152;5.846;2022-11-22T10:31:05;10.48;;;5.05;;
52786;SDS011;38661;53.152;5.846;2022-11-22T10:45:17;9.15;;;4.72;;
52786;SDS011;38661;53.152;5.846;2022-11-22T10:47:54;10.80;;;3.60;;
52786;SDS011;38661;53.152;5.846;2022-11-22T11:04:23;8.48;;;4.50;;
52786;SDS011;38661;53.152;5.846;2022-11-22T11:07:00;15.90;;;4.55;;
52786;SDS011;38661;53.152;5.846;2022-11-22T11:09:34;10.75;;;4.07;;
52786;SDS011;38661;53.152;5.846;2022-11-22T11:12:04;11.80;;;4.23;;
52786;SDS011;38661;53.152;5.846;2022-11-22T11:14:56;7.45;;;3.90;;
52786;SDS011;38661;53.152;5.846;2022-11-22T11:17:34;6.88;;;2.88;;
52786;SDS011;38661;53.152;5.846;2022-11-22T11:20:04;6.65;;;3.00;;
52786;SDS011;38661;53.152;5.846;2022-11-22T11:22:45;8.02;;;3.20;;
52786;SDS011;38661;53.152;5.846;2022-11-22T11:28:03;6.63;;;3.50;;
52786;SDS011;38661;53.152;5.846;2022-11-22T11:31:15;7.93;;;3.13;;
52786;SDS011;38661;53.152;5.846;2022-11-22T11:33:42;9.18;;;3.65;;
52786;SDS011;38661;53.152;5.846;2022-11-22T11:36:17;8.52;;;3.00;;
52786;SDS011;38661;53.152;5.846;2022-11-22T11:39:04;5.75;;;2.70;;
52786;SDS011;38661;53.152;5.846;2022-11-22T11:41:45;6.93;;;3.30;;
52786;SDS011;38661;53.152;5.846;2022-11-22T11:46:59;8.60;;;3.97;;
52786;SDS011;38661;53.152;5.846;2022-11-22T11:49:26;15.00;;;5.32;;
52786;SDS011;38661;53.152;5.846;2022-11-22T11:51:54;13.93;;;6.25;;
52786;SDS011;38661;53.152;5.846;2022-11-22T11:57:03;28.20;;;11.45;;
52786;SDS011;38661;53.152;5.846;2022-11-22T12:02:10;14.75;;;6.03;;
52786;SDS011;38661;53.152;5.846;2022-11-22T12:04:59;15.63;;;6.22;;
52786;SDS011;38661;53.152;5.846;2022-11-22T12:09:59;20.50;;;7.32;;
52786;SDS011;38661;53.152;5.846;2022-11-22T12:15:21;29.42;;;13.88;;
52786;SDS011;38661;53.152;5.846;2022-11-22T12:26:08;38.67;;;21.20;;
52786;SDS011;38661;53.152;5.846;2022-11-22T12:28:34;12.90;;;7.22;;
52786;SDS011;38661;53.152;5.846;2022-11-22T12:36:24;21.20;;;10.90;;
52786;SDS011;38661;53.152;5.846;2022-11-22T12:39:07;6.82;;;3.47;;
52786;SDS011;38661;53.152;5.846;2022-11-22T12:41:42;18.05;;;12.32;;
52786;SDS011;38661;53.152;5.846;2022-11-22T12:44:13;10.38;;;7.45;;
52786;SDS011;38661;53.152;5.846;2022-11-22T12:46:43;17.90;;;12.70;;
52786;SDS011;38661;53.152;5.846;2022-11-22T12:49:28;14.82;;;8.52;;
52786;SDS011;38661;53.152;5.846;2022-11-22T12:57:23;8.65;;;4.13;;
52786;SDS011;38661;53.152;5.846;2022-11-22T13:02:35;6.15;;;4.47;;
52786;SDS011;38661;53.152;5.846;2022-11-22T13:05:34;7.47;;;3.08;;
52786;SDS011;38661;53.152;5.846;2022-11-22T13:13:05;7.97;;;3.00;;
52786;SDS011;38661;53.152;5.846;2022-11-22T13:15:55;10.88;;;2.63;;
52786;SDS011;38661;53.152;5.846;2022-11-22T13:18:24;5.00;;;2.72;;
52786;SDS011;38661;53.152;5.846;2022-11-22T13:20:57;8.95;;;3.25;;
52786;SDS011;38661;53.152;5.846;2022-11-22T13:23:29;8.52;;;2.60;;
52786;SDS011;38661;53.152;5.846;2022-11-22T13:26:06;12.60;;;4.47;;
52786;SDS011;38661;53.152;5.846;2022-11-22T13:28:40;9.38;;;3.35;;
52786;SDS011;38661;53.152;5.846;2022-11-22T13:39:00;7.75;;;2.90;;
52786;SDS011;38661;53.152;5.846;2022-11-22T13:41:43;7.47;;;2.58;;
52786;SDS011;38661;53.152;5.846;2022-11-22T13:44:33;10.38;;;2.65;;
52786;SDS011;38661;53.152;5.846;2022-11-22T13:47:00;8.10;;;4.32;;
52786;SDS011;38661;53.152;5.846;2022-11-22T13:51:58;8.27;;;2.85;;
52786;SDS011;38661;53.152;5.846;2022-11-22T13:56:59;6.57;;;2.40;;
52786;SDS011;38661;53.152;5.846;2022-11-22T13:59:43;7.63;;;2.92;;
52786;SDS011;38661;53.152;5.846;2022-11-22T14:02:20;6.15;;;2.95;;
52786;SDS011;38661;53.152;5.846;2022-11-22T14:04:51;11.10;;;9.48;;
52786;SDS011;38661;53.152;5.846;2022-11-22T14:07:21;6.03;;;4.47;;
52786;SDS011;38661;53.152;5.846;2022-11-22T14:10:03;4.07;;;2.33;;
52786;SDS011;38661;53.152;5.846;2022-11-22T14:12:55;6.20;;;2.05;;
52786;SDS011;38661;53.152;5.846;2022-11-22T14:37:55;5.68;;;2.75;;
52786;SDS011;38661;53.152;5.846;2022-11-22T14:40:30;8.93;;;3.13;;
52786;SDS011;38661;53.152;5.846;2022-11-22T14:43:04;8.13;;;5.25;;
52786;SDS011;38661;53.152;5.846;2022-11-22T14:45:47;6.97;;;2.80;;
52786;SDS011;38661;53.152;5.846;2022-11-22T14:48:16;7.00;;;2.95;;
52786;SDS011;38661;53.152;5.846;2022-11-22T14:50:50;4.65;;;2.05;;
52786;SDS011;38661;53.152;5.846;2022-11-22T14:53:36;3.97;;;1.45;;
52786;SDS011;38661;53.152;5.846;2022-11-22T14:58:41;5.72;;;1.95;;
52786;SDS011;38661;53.152;5.846;2022-11-22T15:01:27;5.82;;;3.28;;
52786;SDS011;38661;53.152;5.846;2022-11-22T15:04:10;4.80;;;2.00;;
52786;SDS011;38661;53.152;5.846;2022-11-22T15:12:50;4.07;;;2.17;;
52786;SDS011;38661;53.152;5.846;2022-11-22T15:15:38;3.72;;;2.10;;
52786;SDS011;38661;53.152;5.846;2022-11-22T15:20:56;3.78;;;2.10;;
52786;SDS011;38661;53.152;5.846;2022-11-22T15:23:23;5.13;;;2.28;;
52786;SDS011;38661;53.152;5.846;2022-11-22T15:26:00;6.95;;;3.53;;
52786;SDS011;38661;53.152;5.846;2022-11-22T15:28:28;6.78;;;2.67;;
52786;SDS011;38661;53.152;5.846;2022-11-22T15:31:00;6.18;;;3.55;;
52786;SDS011;38661;53.152;5.846;2022-11-22T15:33:28;5.67;;;3.33;;
52786;SDS011;38661;53.152;5.846;2022-11-22T15:36:01;8.88;;;5.47;;
52786;SDS011;38661;53.152;5.846;2022-11-22T15:38:47;6.50;;;2.45;;
52786;SDS011;38661;53.152;5.846;2022-11-22T15:41:15;6.15;;;3.33;;
52786;SDS011;38661;53.152;5.846;2022-11-22T15:43:43;7.18;;;3.17;;
52786;SDS011;38661;53.152;5.846;2022-11-22T15:46:11;7.40;;;4.30;;
52786;SDS011;38661;53.152;5.846;2022-11-22T15:48:44;8.57;;;4.47;;
52786;SDS011;38661;53.152;5.846;2022-11-22T15:53:41;4.82;;;1.95;;
52786;SDS011;38661;53.152;5.846;2022-11-22T15:58:53;9.48;;;3.13;;
52786;SDS011;38661;53.152;5.846;2022-11-22T16:01:20;7.03;;;1.98;;
52786;SDS011;38661;53.152;5.846;2022-11-22T16:03:50;3.70;;;1.98;;
52786;SDS011;38661;53.152;5.846;2022-11-22T16:06:24;3.95;;;1.45;;
52786;SDS011;38661;53.152;5.846;2022-11-22T16:08:57;5.72;;;2.65;;
52786;SDS011;38661;53.152;5.846;2022-11-22T16:11:28;3.17;;;1.70;;
52786;SDS011;38661;53.152;5.846;2022-11-22T16:14:00;3.67;;;1.65;;
52786;SDS011;38661;53.152;5.846;2022-11-22T16:16:32;4.68;;;1.55;;
52786;SDS011;38661;53.152;5.846;2022-11-22T16:21:59;6.95;;;2.22;;
52786;SDS011;38661;53.152;5.846;2022-11-22T16:24:35;5.78;;;3.50;;
52786;SDS011;38661;53.152;5.846;2022-11-22T16:27:09;24.02;;;15.27;;
52786;SDS011;38661;53.152;5.846;2022-11-22T16:29:39;24.20;;;15.20;;
52786;SDS011;38661;53.152;5.846;2022-11-22T16:32:10;15.48;;;9.55;;
52786;SDS011;38661;53.152;5.846;2022-11-22T16:34:37;21.17;;;13.80;;
52786;SDS011;38661;53.152;5.846;2022-11-22T16:39:53;6.07;;;2.85;;
52786;SDS011;38661;53.152;5.846;2022-11-22T16:42:19;4.60;;;2.13;;
52786;SDS011;38661;53.152;5.846;2022-11-22T16:44:49;6.95;;;2.95;;
52786;SDS011;38661;53.152;5.846;2022-11-22T16:47:16;5.07;;;1.67;;
52786;SDS011;38661;53.152;5.846;2022-11-22T16:49:43;5.70;;;2.17;;
52786;SDS011;38661;53.152;5.846;2022-11-22T16:52:10;6.50;;;1.98;;
52786;SDS011;38661;53.152;5.846;2022-11-22T16:54:37;4.85;;;2.20;;
52786;SDS011;38661;53.152;5.846;2022-11-22T16:57:08;29.33;;;19.08;;
52786;SDS011;38661;53.152;5.846;2022-11-22T16:59:37;5.72;;;3.00;;
52786;SDS011;38661;53.152;5.846;2022-11-22T17:02:13;8.48;;;3.97;;
52786;SDS011;38661;53.152;5.846;2022-11-22T17:04:43;9.88;;;2.92;;
52786;SDS011;38661;53.152;5.846;2022-11-22T17:07:09;3.58;;;2.17;;
52786;SDS011;38661;53.152;5.846;2022-11-22T17:09:35;5.45;;;3.03;;
52786;SDS011;38661;53.152;5.846;2022-11-22T17:12:01;3.25;;;2.03;;
52786;SDS011;38661;53.152;5.846;2022-11-22T17:14:34;6.25;;;3.70;;
52786;SDS011;38661;53.152;5.846;2022-11-22T17:17:00;4.72;;;2.53;;